sensor_id;sensor_type;location;lat;lon;timestamp;pressure;altitude;pressure_sealevel;temperature;humidity
46366;BME280;72328;49.570;8.722;2024-01-07T00:00:27;99218.81;;;11.09;56.29
46366;BME280;72328;49.570;8.722;2024-01-07T00:04:28;99211.88;;;11.09;56.47
46366;BME280;72328;49.570;8.722;2024-01-07T00:08:29;99220.44;;;11.10;56.31
46366;BME280;72328;49.570;8.722;2024-01-07T00:12:29;99217.31;;;11.06;56.18
46366;BME280;72328;49.570;8.722;2024-01-07T00:16:30;99215.31;;;11.10;56.51
46366;BME280;72328;49.570;8.722;2024-01-07T00:20:31;99223.03;;;11.10;56.09
46366;BME280;72328;49.570;8.722;2024-01-07T00:24:31;99220.56;;;11.08;56.22
46366;BME280;72328;49.570;8.722;2024-01-07T00:28:32;99236.03;;;11.08;56.08
46366;BME280;72328;49.570;8.722;2024-01-07T00:32:32;99222.44;;;11.06;56.04
46366;BME280;72328;49.570;8.722;2024-01-07T00:36:33;99229.91;;;11.09;56.33
46366;BME280;72328;49.570;8.722;2024-01-07T00:40:34;99227.59;;;11.06;56.40
46366;BME280;72328;49.570;8.722;2024-01-07T00:44:34;99226.78;;;11.06;56.48
46366;BME280;72328;49.570;8.722;2024-01-07T00:48:37;99224.19;;;11.06;56.45
46366;BME280;72328;49.570;8.722;2024-01-07T00:52:37;99222.69;;;11.03;56.20
46366;BME280;72328;49.570;8.722;2024-01-07T00:56:38;99223.72;;;11.01;56.64
46366;BME280;72328;49.570;8.722;2024-01-07T01:00:39;99239.28;;;10.99;56.32
46366;BME280;72328;49.570;8.722;2024-01-07T01:04:40;99243.75;;;10.97;56.54
46366;BME280;72328;49.570;8.722;2024-01-07T01:08:40;99238.59;;;10.97;56.50
46366;BME280;72328;49.570;8.722;2024-01-07T01:12:41;99242.81;;;10.98;56.47
46366;BME280;72328;49.570;8.722;2024-01-07T01:16:42;99246.91;;;11.01;56.80
46366;BME280;72328;49.570;8.722;2024-01-07T01:20:42;99252.91;;;11.01;56.82
46366;BME280;72328;49.570;8.722;2024-01-07T01:24:43;99250.16;;;11.03;56.44
46366;BME280;72328;49.570;8.722;2024-01-07T01:28:46;99262.00;;;11.05;56.54
46366;BME280;72328;49.570;8.722;2024-01-07T01:32:46;99268.22;;;11.03;56.71
46366;BME280;72328;49.570;8.722;2024-01-07T01:36:47;99257.91;;;10.92;56.82
46366;BME280;72328;49.570;8.722;2024-01-07T01:40:55;99255.91;;;10.84;56.70
46366;BME280;72328;49.570;8.722;2024-01-07T01:44:55;99264.81;;;10.80;57.18
46366;BME280;72328;49.570;8.722;2024-01-07T01:48:59;99266.47;;;10.81;57.15
46366;BME280;72328;49.570;8.722;2024-01-07T01:53:01;99260.63;;;10.79;57.03
46366;BME280;72328;49.570;8.722;2024-01-07T01:57:01;99267.41;;;10.80;57.06
46366;BME280;72328;49.570;8.722;2024-01-07T02:01:03;99274.19;;;10.81;57.09
46366;BME280;72328;49.570;8.722;2024-01-07T02:05:04;99273.50;;;10.79;56.48
46366;BME280;72328;49.570;8.722;2024-01-07T02:09:05;99272.75;;;10.77;56.94
46366;BME280;72328;49.570;8.722;2024-01-07T02:13:05;99273.91;;;10.73;56.78
46366;BME280;72328;49.570;8.722;2024-01-07T02:17:06;99270.53;;;10.73;56.62
46366;BME280;72328;49.570;8.722;2024-01-07T02:21:10;99270.66;;;10.71;56.89
46366;BME280;72328;49.570;8.722;2024-01-07T02:25:11;99273.59;;;10.67;57.26
46366;BME280;72328;49.570;8.722;2024-01-07T02:29:12;99274.16;;;10.59;56.71
46366;BME280;72328;49.570;8.722;2024-01-07T02:33:12;99273.44;;;10.57;57.22
46366;BME280;72328;49.570;8.722;2024-01-07T02:37:13;99280.34;;;10.57;57.22
46366;BME280;72328;49.570;8.722;2024-01-07T02:41:14;99272.75;;;10.55;56.89
46366;BME280;72328;49.570;8.722;2024-01-07T02:45:14;99275.09;;;10.58;56.84
46366;BME280;72328;49.570;8.722;2024-01-07T02:49:15;99274.03;;;10.61;56.68
46366;BME280;72328;49.570;8.722;2024-01-07T02:53:16;99274.63;;;10.64;56.84
46366;BME280;72328;49.570;8.722;2024-01-07T02:57:16;99280.47;;;10.66;56.99
46366;BME280;72328;49.570;8.722;2024-01-07T03:01:17;99284.22;;;10.62;56.67
46366;BME280;72328;49.570;8.722;2024-01-07T03:05:18;99277.66;;;10.58;56.73
46366;BME280;72328;49.570;8.722;2024-01-07T03:09:18;99279.41;;;10.58;57.08
46366;BME280;72328;49.570;8.722;2024-01-07T03:13:19;99284.09;;;10.64;57.23
46366;BME280;72328;49.570;8.722;2024-01-07T03:17:20;99278.00;;;10.65;56.80
46366;BME280;72328;49.570;8.722;2024-01-07T03:21:23;99286.31;;;10.68;57.32
46366;BME280;72328;49.570;8.722;2024-01-07T03:25:23;99281.91;;;10.70;56.85
46366;BME280;72328;49.570;8.722;2024-01-07T03:29:24;99281.78;;;10.72;56.59
46366;BME280;72328;49.570;8.722;2024-01-07T03:33:25;99286.94;;;10.72;56.68
46366;BME280;72328;49.570;8.722;2024-01-07T03:37:25;99284.47;;;10.70;56.79
46366;BME280;72328;49.570;8.722;2024-01-07T03:41:26;99288.19;;;10.66;57.13
46366;BME280;72328;49.570;8.722;2024-01-07T03:45:26;99294.97;;;10.67;57.17
46366;BME280;72328;49.570;8.722;2024-01-07T03:49:27;99293.34;;;10.66;57.09
46366;BME280;72328;49.570;8.722;2024-01-07T03:53:28;99303.75;;;10.65;57.09
46366;BME280;72328;49.570;8.722;2024-01-07T03:57:29;99302.94;;;10.64;57.17
46366;BME280;72328;49.570;8.722;2024-01-07T04:01:30;99305.53;;;10.64;56.82
46366;BME280;72328;49.570;8.722;2024-01-07T04:05:30;99307.38;;;10.62;56.85
46366;BME280;72328;49.570;8.722;2024-01-07T04:09:31;99307.03;;;10.56;56.80
46366;BME280;72328;49.570;8.722;2024-01-07T04:13:32;99312.59;;;10.50;56.80
46366;BME280;72328;49.570;8.722;2024-01-07T04:17:32;99322.31;;;10.46;57.02
46366;BME280;72328;49.570;8.722;2024-01-07T04:21:33;99318.09;;;10.45;57.28
46366;BME280;72328;49.570;8.722;2024-01-07T04:25:33;99320.56;;;10.47;56.79
46366;BME280;72328;49.570;8.722;2024-01-07T04:29:34;99329.22;;;10.46;56.82
46366;BME280;72328;49.570;8.722;2024-01-07T04:33:35;99328.63;;;10.42;56.86
46366;BME280;72328;49.570;8.722;2024-01-07T04:37:36;99324.53;;;10.40;57.07
46366;BME280;72328;49.570;8.722;2024-01-07T04:41:37;99334.44;;;10.33;56.86
46366;BME280;72328;49.570;8.722;2024-01-07T04:45:38;99333.59;;;10.33;57.18
46366;BME280;72328;49.570;8.722;2024-01-07T04:49:39;99339.69;;;10.32;57.21
46366;BME280;72328;49.570;8.722;2024-01-07T04:53:39;99340.53;;;10.32;57.34
46366;BME280;72328;49.570;8.722;2024-01-07T04:57:40;99343.19;;;10.31;57.07
46366;BME280;72328;49.570;8.722;2024-01-07T05:01:41;99345.66;;;10.32;57.02
46366;BME280;72328;49.570;8.722;2024-01-07T05:05:41;99349.88;;;10.33;56.90
46366;BME280;72328;49.570;8.722;2024-01-07T05:09:42;99355.81;;;10.34;57.46
46366;BME280;72328;49.570;8.722;2024-01-07T05:13:43;99344.94;;;10.30;57.17
46366;BME280;72328;49.570;8.722;2024-01-07T05:17:43;99354.53;;;10.28;57.32
46366;BME280;72328;49.570;8.722;2024-01-07T05:21:44;99355.47;;;10.27;57.42
46366;BME280;72328;49.570;8.722;2024-01-07T05:25:45;99355.91;;;10.21;56.96
46366;BME280;72328;49.570;8.722;2024-01-07T05:29:46;99368.03;;;10.19;57.14
46366;BME280;72328;49.570;8.722;2024-01-07T05:33:47;99363.13;;;10.16;57.22
46366;BME280;72328;49.570;8.722;2024-01-07T05:37:48;99376.16;;;10.26;56.95
46366;BME280;72328;49.570;8.722;2024-01-07T05:41:49;99382.00;;;10.28;57.08
46366;BME280;72328;49.570;8.722;2024-01-07T05:45:49;99380.47;;;10.25;57.53
46366;BME280;72328;49.570;8.722;2024-01-07T05:49:50;99389.81;;;10.26;57.53
46366;BME280;72328;49.570;8.722;2024-01-07T05:53:52;99394.25;;;10.24;57.25
46366;BME280;72328;49.570;8.722;2024-01-07T05:57:53;99391.09;;;10.21;57.28
46366;BME280;72328;49.570;8.722;2024-01-07T06:01:58;99393.88;;;10.18;57.62
46366;BME280;72328;49.570;8.722;2024-01-07T06:05:59;99396.66;;;10.15;57.04
46366;BME280;72328;49.570;8.722;2024-01-07T06:10:00;99394.41;;;10.10;57.62
46366;BME280;72328;49.570;8.722;2024-01-07T06:14:00;99397.13;;;10.09;57.24
46366;BME280;72328;49.570;8.722;2024-01-07T06:18:01;99401.41;;;10.08;57.11
46366;BME280;72328;49.570;8.722;2024-01-07T06:22:02;99407.41;;;10.09;57.18
46366;BME280;72328;49.570;8.722;2024-01-07T06:26:03;99409.25;;;10.07;57.11
46366;BME280;72328;49.570;8.722;2024-01-07T06:30:05;99421.47;;;10.03;57.21
46366;BME280;72328;49.570;8.722;2024-01-07T06:34:06;99428.56;;;10.00;57.07
46366;BME280;72328;49.570;8.722;2024-01-07T06:38:07;99431.97;;;10.00;57.33
46366;BME280;72328;49.570;8.722;2024-01-07T06:42:11;99438.25;;;9.96;57.60
46366;BME280;72328;49.570;8.722;2024-01-07T06:46:12;99439.28;;;9.94;57.34
46366;BME280;72328;49.570;8.722;2024-01-07T06:50:13;99447.00;;;9.94;57.66
46366;BME280;72328;49.570;8.722;2024-01-07T06:54:13;99449.78;;;9.91;57.68
46366;BME280;72328;49.570;8.722;2024-01-07T06:58:14;99460.06;;;9.91;57.33
46366;BME280;72328;49.570;8.722;2024-01-07T07:02:14;99459.34;;;9.89;57.76
46366;BME280;72328;49.570;8.722;2024-01-07T07:06:16;99466.13;;;9.90;57.25
46366;BME280;72328;49.570;8.722;2024-01-07T07:10:16;99472.91;;;9.91;57.41
46366;BME280;72328;49.570;8.722;2024-01-07T07:14:17;99475.59;;;9.89;57.83
46366;BME280;72328;49.570;8.722;2024-01-07T07:18:18;99490.22;;;9.89;57.83
46366;BME280;72328;49.570;8.722;2024-01-07T07:22:19;99493.59;;;9.89;57.73
46366;BME280;72328;49.570;8.722;2024-01-07T07:26:20;99498.94;;;9.86;57.40
46366;BME280;72328;49.570;8.722;2024-01-07T07:30:21;99497.72;;;9.79;57.38
46366;BME280;72328;49.570;8.722;2024-01-07T07:34:21;99498.03;;;9.75;57.67
46366;BME280;72328;49.570;8.722;2024-01-07T07:38:22;99502.75;;;9.68;57.75
46366;BME280;72328;49.570;8.722;2024-01-07T07:42:23;99512.72;;;9.60;58.14
46366;BME280;72328;49.570;8.722;2024-01-07T07:46:24;99512.41;;;9.52;58.30
46366;BME280;72328;49.570;8.722;2024-01-07T07:50:24;99514.59;;;9.46;58.02
46366;BME280;72328;49.570;8.722;2024-01-07T07:54:25;99526.91;;;9.41;58.31
46366;BME280;72328;49.570;8.722;2024-01-07T07:58:26;99523.81;;;9.36;58.21
46366;BME280;72328;49.570;8.722;2024-01-07T08:02:27;99530.50;;;9.38;58.48
46366;BME280;72328;49.570;8.722;2024-01-07T08:06:27;99528.94;;;9.36;58.38
46366;BME280;72328;49.570;8.722;2024-01-07T08:10:28;99538.38;;;9.35;58.44
46366;BME280;72328;49.570;8.722;2024-01-07T08:14:32;99534.72;;;9.39;58.18
46366;BME280;72328;49.570;8.722;2024-01-07T08:18:33;99531.22;;;9.40;58.00
46366;BME280;72328;49.570;8.722;2024-01-07T08:22:33;99540.28;;;9.46;58.45
46366;BME280;72328;49.570;8.722;2024-01-07T08:26:34;99541.69;;;9.50;58.12
46366;BME280;72328;49.570;8.722;2024-01-07T08:30:35;99553.84;;;9.48;57.92
46366;BME280;72328;49.570;8.722;2024-01-07T08:34:35;99555.78;;;9.44;57.95
46366;BME280;72328;49.570;8.722;2024-01-07T08:38:36;99562.53;;;9.33;58.04
46366;BME280;72328;49.570;8.722;2024-01-07T08:42:37;99564.78;;;9.25;58.34
46366;BME280;72328;49.570;8.722;2024-01-07T08:46:37;99570.84;;;9.24;58.38
46366;BME280;72328;49.570;8.722;2024-01-07T08:50:38;99580.19;;;9.25;58.11
46366;BME280;72328;49.570;8.722;2024-01-07T08:54:39;99583.78;;;9.22;58.01
46366;BME280;72328;49.570;8.722;2024-01-07T08:58:41;99583.97;;;9.19;58.17
46366;BME280;72328;49.570;8.722;2024-01-07T09:02:42;99594.47;;;9.16;58.49
46366;BME280;72328;49.570;8.722;2024-01-07T09:06:43;99600.63;;;9.14;58.24
46366;BME280;72328;49.570;8.722;2024-01-07T09:10:44;99607.97;;;9.06;58.35
46366;BME280;72328;49.570;8.722;2024-01-07T09:14:45;99612.28;;;9.05;58.61
46366;BME280;72328;49.570;8.722;2024-01-07T09:18:45;99619.88;;;9.07;58.27
46366;BME280;72328;49.570;8.722;2024-01-07T09:22:46;99612.16;;;9.07;58.20
46366;BME280;72328;49.570;8.722;2024-01-07T09:26:48;99618.84;;;9.09;58.42
46366;BME280;72328;49.570;8.722;2024-01-07T09:30:49;99615.38;;;9.10;58.41
46366;BME280;72328;49.570;8.722;2024-01-07T09:34:50;99631.44;;;9.14;58.28
46366;BME280;72328;49.570;8.722;2024-01-07T09:38:50;99630.41;;;9.16;58.60
46366;BME280;72328;49.570;8.722;2024-01-07T09:42:51;99628.66;;;9.17;58.41
46366;BME280;72328;49.570;8.722;2024-01-07T09:46:52;99633.69;;;9.18;58.46
46366;BME280;72328;49.570;8.722;2024-01-07T09:50:54;99637.81;;;9.21;58.34
46366;BME280;72328;49.570;8.722;2024-01-07T09:54:58;99635.06;;;9.24;58.60
46366;BME280;72328;49.570;8.722;2024-01-07T09:59:02;99643.94;;;9.32;58.80
46366;BME280;72328;49.570;8.722;2024-01-07T10:03:02;99645.19;;;9.39;58.72
46366;BME280;72328;49.570;8.722;2024-01-07T10:07:03;99656.00;;;9.44;58.32
46366;BME280;72328;49.570;8.722;2024-01-07T10:11:04;99636.97;;;9.47;58.50
46366;BME280;72328;49.570;8.722;2024-01-07T10:15:05;99653.94;;;9.49;58.21
46366;BME280;72328;49.570;8.722;2024-01-07T10:19:06;99644.06;;;9.43;58.43
46366;BME280;72328;49.570;8.722;2024-01-07T10:23:08;99646.81;;;9.40;58.60
46366;BME280;72328;49.570;8.722;2024-01-07T10:27:09;99643.44;;;9.40;58.77
46366;BME280;72328;49.570;8.722;2024-01-07T10:31:11;99658.56;;;9.44;58.81
46366;BME280;72328;49.570;8.722;2024-01-07T10:35:12;99647.25;;;9.47;58.88
46366;BME280;72328;49.570;8.722;2024-01-07T10:39:17;99656.53;;;9.49;58.77
46366;BME280;72328;49.570;8.722;2024-01-07T10:43:19;99652.09;;;9.51;58.27
46366;BME280;72328;49.570;8.722;2024-01-07T10:47:20;99661.84;;;9.46;58.51
46366;BME280;72328;49.570;8.722;2024-01-07T10:51:22;99655.75;;;9.35;58.34
46366;BME280;72328;49.570;8.722;2024-01-07T10:55:23;99677.53;;;9.15;57.99
46366;BME280;72328;49.570;8.722;2024-01-07T10:59:26;99684.66;;;8.98;57.90
46366;BME280;72328;49.570;8.722;2024-01-07T11:03:43;99680.06;;;8.89;58.31
46366;BME280;72328;49.570;8.722;2024-01-07T11:07:55;99682.09;;;8.84;58.08
46366;BME280;72328;49.570;8.722;2024-01-07T11:11:58;99690.19;;;8.78;58.34
46366;BME280;72328;49.570;8.722;2024-01-07T11:16:00;99695.47;;;8.75;57.93
46366;BME280;72328;49.570;8.722;2024-01-07T11:20:05;99686.44;;;8.69;58.25
46366;BME280;72328;49.570;8.722;2024-01-07T11:24:06;99687.88;;;8.73;58.33
46366;BME280;72328;49.570;8.722;2024-01-07T11:28:06;99680.91;;;8.75;58.23
46366;BME280;72328;49.570;8.722;2024-01-07T11:32:07;99689.16;;;8.80;57.97
46366;BME280;72328;49.570;8.722;2024-01-07T11:36:10;99699.22;;;8.83;57.92
46366;BME280;72328;49.570;8.722;2024-01-07T11:40:11;99695.94;;;8.81;57.71
46366;BME280;72328;49.570;8.722;2024-01-07T11:44:12;99697.59;;;8.82;57.90
46366;BME280;72328;49.570;8.722;2024-01-07T11:48:15;99692.00;;;8.76;57.66
46366;BME280;72328;49.570;8.722;2024-01-07T11:52:16;99695.94;;;8.67;58.15
46366;BME280;72328;49.570;8.722;2024-01-07T11:56:17;99701.81;;;8.69;57.70
46366;BME280;72328;49.570;8.722;2024-01-07T12:00:18;99695.03;;;8.68;57.93
46366;BME280;72328;49.570;8.722;2024-01-07T12:04:20;99703.09;;;8.62;57.48
46366;BME280;72328;49.570;8.722;2024-01-07T12:08:21;99706.03;;;8.56;57.76
46366;BME280;72328;49.570;8.722;2024-01-07T12:12:21;99698.59;;;8.52;57.83
46366;BME280;72328;49.570;8.722;2024-01-07T12:16:22;99698.59;;;8.52;57.54
46366;BME280;72328;49.570;8.722;2024-01-07T12:20:23;99702.09;;;8.51;57.46
46366;BME280;72328;49.570;8.722;2024-01-07T12:24:27;99711.72;;;8.47;57.27
46366;BME280;72328;49.570;8.722;2024-01-07T12:28:28;99713.34;;;8.34;57.04
46366;BME280;72328;49.570;8.722;2024-01-07T12:32:32;99715.63;;;8.25;57.43
46366;BME280;72328;49.570;8.722;2024-01-07T12:36:33;99717.38;;;8.09;57.01
46366;BME280;72328;49.570;8.722;2024-01-07T12:40:34;99713.59;;;8.00;57.40
46366;BME280;72328;49.570;8.722;2024-01-07T12:44:38;99716.41;;;7.96;57.10
46366;BME280;72328;49.570;8.722;2024-01-07T12:48:39;99733.56;;;7.95;57.41
46366;BME280;72328;49.570;8.722;2024-01-07T12:52:40;99731.06;;;7.94;57.13
46366;BME280;72328;49.570;8.722;2024-01-07T12:56:40;99733.72;;;7.92;57.19
46366;BME280;72328;49.570;8.722;2024-01-07T13:00:43;99734.72;;;7.90;57.20
46366;BME280;72328;49.570;8.722;2024-01-07T13:04:43;99737.91;;;7.93;57.11
46366;BME280;72328;49.570;8.722;2024-01-07T13:08:44;99745.16;;;7.87;57.12
46366;BME280;72328;49.570;8.722;2024-01-07T13:12:45;99759.03;;;7.83;56.86
46366;BME280;72328;49.570;8.722;2024-01-07T13:16:45;99761.84;;;7.78;56.84
46366;BME280;72328;49.570;8.722;2024-01-07T13:20:46;99760.84;;;7.81;56.81
46366;BME280;72328;49.570;8.722;2024-01-07T13:24:47;99770.84;;;7.85;57.08
46366;BME280;72328;49.570;8.722;2024-01-07T13:28:47;99764.25;;;7.81;57.12
46366;BME280;72328;49.570;8.722;2024-01-07T13:32:48;99763.66;;;7.76;56.66
46366;BME280;72328;49.570;8.722;2024-01-07T13:36:49;99781.09;;;7.70;56.92
46366;BME280;72328;49.570;8.722;2024-01-07T13:40:51;99775.66;;;7.60;56.93
46366;BME280;72328;49.570;8.722;2024-01-07T13:44:52;99777.56;;;7.57;57.03
46366;BME280;72328;49.570;8.722;2024-01-07T13:48:53;99782.97;;;7.52;56.67
46366;BME280;72328;49.570;8.722;2024-01-07T13:52:53;99787.66;;;7.44;57.01
46366;BME280;72328;49.570;8.722;2024-01-07T13:56:54;99796.66;;;7.36;56.98
46366;BME280;72328;49.570;8.722;2024-01-07T14:00:55;99792.59;;;7.32;57.02
46366;BME280;72328;49.570;8.722;2024-01-07T14:04:55;99816.41;;;7.34;56.86
46366;BME280;72328;49.570;8.722;2024-01-07T14:08:56;99814.56;;;7.36;56.83
46366;BME280;72328;49.570;8.722;2024-01-07T14:12:56;99816.41;;;7.34;56.83
46366;BME280;72328;49.570;8.722;2024-01-07T14:16:57;99823.19;;;7.35;56.67
46366;BME280;72328;49.570;8.722;2024-01-07T14:20:59;99830.28;;;7.30;56.52
46366;BME280;72328;49.570;8.722;2024-01-07T14:24:59;99829.94;;;7.20;56.70
46366;BME280;72328;49.570;8.722;2024-01-07T14:29:00;99837.81;;;7.16;56.75
46366;BME280;72328;49.570;8.722;2024-01-07T14:33:01;99844.28;;;7.23;56.57
46366;BME280;72328;49.570;8.722;2024-01-07T14:37:02;99847.66;;;7.23;56.42
46366;BME280;72328;49.570;8.722;2024-01-07T14:41:02;99853.25;;;7.14;56.54
46366;BME280;72328;49.570;8.722;2024-01-07T14:45:03;99855.47;;;7.05;56.26
46366;BME280;72328;49.570;8.722;2024-01-07T14:49:04;99873.47;;;7.03;56.69
46366;BME280;72328;49.570;8.722;2024-01-07T14:53:05;99871.13;;;6.99;56.61
46366;BME280;72328;49.570;8.722;2024-01-07T14:57:06;99872.88;;;6.81;56.60
46366;BME280;72328;49.570;8.722;2024-01-07T15:01:09;99880.25;;;6.70;56.54
46366;BME280;72328;49.570;8.722;2024-01-07T15:05:10;99889.81;;;6.67;56.67
46366;BME280;72328;49.570;8.722;2024-01-07T15:09:10;99886.66;;;6.62;56.66
46366;BME280;72328;49.570;8.722;2024-01-07T15:13:11;99898.59;;;6.61;56.79
46366;BME280;72328;49.570;8.722;2024-01-07T15:17:12;99895.16;;;6.62;56.44
46366;BME280;72328;49.570;8.722;2024-01-07T15:21:13;99906.44;;;6.58;56.70
46366;BME280;72328;49.570;8.722;2024-01-07T15:25:13;99904.69;;;6.59;56.57
46366;BME280;72328;49.570;8.722;2024-01-07T15:29:15;99923.50;;;6.58;56.13
46366;BME280;72328;49.570;8.722;2024-01-07T15:33:15;99925.16;;;6.59;56.01
46366;BME280;72328;49.570;8.722;2024-01-07T15:37:16;99925.25;;;6.57;56.31
46366;BME280;72328;49.570;8.722;2024-01-07T15:41:17;99935.63;;;6.54;56.39
46366;BME280;72328;49.570;8.722;2024-01-07T15:45:17;99940.72;;;6.37;56.03
46366;BME280;72328;49.570;8.722;2024-01-07T15:49:18;99950.06;;;6.20;56.08
46366;BME280;72328;49.570;8.722;2024-01-07T15:53:19;99945.22;;;6.14;56.36
46366;BME280;72328;49.570;8.722;2024-01-07T15:57:20;99951.59;;;6.05;56.15
46366;BME280;72328;49.570;8.722;2024-01-07T16:01:20;99952.34;;;6.07;56.37
46366;BME280;72328;49.570;8.722;2024-01-07T16:05:21;99969.31;;;6.08;56.02
46366;BME280;72328;49.570;8.722;2024-01-07T16:09:22;99971.34;;;6.02;55.83
46366;BME280;72328;49.570;8.722;2024-01-07T16:13:22;99984.59;;;5.91;55.96
46366;BME280;72328;49.570;8.722;2024-01-07T16:17:23;100002.09;;;5.80;55.65
46366;BME280;72328;49.570;8.722;2024-01-07T16:21:24;100018.69;;;5.70;55.97
46366;BME280;72328;49.570;8.722;2024-01-07T16:25:25;100008.75;;;5.64;55.83
46366;BME280;72328;49.570;8.722;2024-01-07T16:29:25;100026.88;;;5.58;55.64
46366;BME280;72328;49.570;8.722;2024-01-07T16:33:26;100027.06;;;5.54;55.89
46366;BME280;72328;49.570;8.722;2024-01-07T16:37:26;100046.63;;;5.55;55.96
46366;BME280;72328;49.570;8.722;2024-01-07T16:41:27;100043.91;;;5.58;55.60
46366;BME280;72328;49.570;8.722;2024-01-07T16:45:29;100057.00;;;5.50;55.61
46366;BME280;72328;49.570;8.722;2024-01-07T16:49:30;100063.16;;;5.46;55.31
46366;BME280;72328;49.570;8.722;2024-01-07T16:53:31;100061.66;;;5.41;55.28
46366;BME280;72328;49.570;8.722;2024-01-07T16:57:31;100056.63;;;5.39;55.64
46366;BME280;72328;49.570;8.722;2024-01-07T17:01:33;100074.38;;;5.42;55.37
46366;BME280;72328;49.570;8.722;2024-01-07T17:05:34;100069.31;;;5.41;55.27
46366;BME280;72328;49.570;8.722;2024-01-07T17:09:34;100080.38;;;5.41;55.46
46366;BME280;72328;49.570;8.722;2024-01-07T17:13:35;100082.13;;;5.39;55.04
46366;BME280;72328;49.570;8.722;2024-01-07T17:17:37;100083.28;;;5.32;55.36
46366;BME280;72328;49.570;8.722;2024-01-07T17:21:38;100093.44;;;5.34;55.38
46366;BME280;72328;49.570;8.722;2024-01-07T17:25:39;100096.06;;;5.32;55.32
46366;BME280;72328;49.570;8.722;2024-01-07T17:29:41;100093.88;;;5.23;54.83
46366;BME280;72328;49.570;8.722;2024-01-07T17:33:41;100105.97;;;5.18;54.86
46366;BME280;72328;49.570;8.722;2024-01-07T17:37:42;100116.41;;;5.12;55.37
46366;BME280;72328;49.570;8.722;2024-01-07T17:41:43;100116.66;;;5.06;55.33
46366;BME280;72328;49.570;8.722;2024-01-07T17:45:45;100119.47;;;5.00;55.08
46366;BME280;72328;49.570;8.722;2024-01-07T17:49:46;100128.00;;;4.99;55.16
46366;BME280;72328;49.570;8.722;2024-01-07T17:53:47;100124.66;;;4.97;55.22
46366;BME280;72328;49.570;8.722;2024-01-07T17:57:47;100131.41;;;4.98;55.25
46366;BME280;72328;49.570;8.722;2024-01-07T18:01:48;100133.03;;;5.01;55.23
46366;BME280;72328;49.570;8.722;2024-01-07T18:05:49;100136.53;;;4.98;55.02
46366;BME280;72328;49.570;8.722;2024-01-07T18:09:51;100143.47;;;4.95;55.11
46366;BME280;72328;49.570;8.722;2024-01-07T18:13:53;100147.63;;;4.97;55.32
46366;BME280;72328;49.570;8.722;2024-01-07T18:17:53;100154.22;;;5.03;55.10
46366;BME280;72328;49.570;8.722;2024-01-07T18:21:54;100149.16;;;5.01;54.88
46366;BME280;72328;49.570;8.722;2024-01-07T18:25:54;100162.97;;;4.96;55.18
46366;BME280;72328;49.570;8.722;2024-01-07T18:29:56;100158.94;;;4.90;55.06
46366;BME280;72328;49.570;8.722;2024-01-07T18:33:57;100179.22;;;4.93;55.00
46366;BME280;72328;49.570;8.722;2024-01-07T18:37:58;100169.63;;;5.00;55.09
46366;BME280;72328;49.570;8.722;2024-01-07T18:41:58;100170.44;;;5.02;54.76
46366;BME280;72328;49.570;8.722;2024-01-07T18:45:59;100171.44;;;4.98;55.02
46366;BME280;72328;49.570;8.722;2024-01-07T18:50:00;100181.69;;;4.96;54.95
46366;BME280;72328;49.570;8.722;2024-01-07T18:54:01;100189.22;;;4.99;55.07
46366;BME280;72328;49.570;8.722;2024-01-07T18:58:01;100189.28;;;4.98;54.85
46366;BME280;72328;49.570;8.722;2024-01-07T19:02:03;100185.94;;;4.96;54.98
46366;BME280;72328;49.570;8.722;2024-01-07T19:06:04;100191.03;;;4.96;54.79
46366;BME280;72328;49.570;8.722;2024-01-07T19:10:05;100194.34;;;4.99;55.12
46366;BME280;72328;49.570;8.722;2024-01-07T19:14:05;100198.66;;;4.97;54.61
46366;BME280;72328;49.570;8.722;2024-01-07T19:18:06;100207.00;;;5.01;54.47
46366;BME280;72328;49.570;8.722;2024-01-07T19:22:07;100204.53;;;4.99;54.56
46366;BME280;72328;49.570;8.722;2024-01-07T19:26:10;100203.03;;;4.94;54.90
46366;BME280;72328;49.570;8.722;2024-01-07T19:30:12;100207.38;;;4.92;54.76
46366;BME280;72328;49.570;8.722;2024-01-07T19:34:12;100210.69;;;4.94;54.74
46366;BME280;72328;49.570;8.722;2024-01-07T19:38:13;100215.78;;;4.94;54.64
46366;BME280;72328;49.570;8.722;2024-01-07T19:42:14;100208.78;;;4.99;54.82
46366;BME280;72328;49.570;8.722;2024-01-07T19:46:24;100216.41;;;5.00;54.62
46366;BME280;72328;49.570;8.722;2024-01-07T19:50:25;100215.59;;;4.98;54.74
46366;BME280;72328;49.570;8.722;2024-01-07T19:54:26;100219.09;;;4.96;54.62
46366;BME280;72328;49.570;8.722;2024-01-07T19:58:27;100222.44;;;4.98;54.40
46366;BME280;72328;49.570;8.722;2024-01-07T20:02:31;100225.00;;;4.98;54.56
46366;BME280;72328;49.570;8.722;2024-01-07T20:06:31;100229.97;;;5.01;54.27
46366;BME280;72328;49.570;8.722;2024-01-07T20:10:32;100223.94;;;5.03;54.56
46366;BME280;72328;49.570;8.722;2024-01-07T20:14:35;100234.22;;;5.02;54.36
46366;BME280;72328;49.570;8.722;2024-01-07T20:18:36;100240.19;;;5.01;54.44
46366;BME280;72328;49.570;8.722;2024-01-07T20:22:38;100236.91;;;4.97;54.49
46366;BME280;72328;49.570;8.722;2024-01-07T20:26:39;100239.63;;;4.93;54.40
46366;BME280;72328;49.570;8.722;2024-01-07T20:30:40;100232.16;;;4.88;54.69
46366;BME280;72328;49.570;8.722;2024-01-07T20:34:40;100243.22;;;4.87;54.49
46366;BME280;72328;49.570;8.722;2024-01-07T20:38:42;100233.03;;;4.87;54.46
46366;BME280;72328;49.570;8.722;2024-01-07T20:42:43;100239.81;;;4.88;54.62
46366;BME280;72328;49.570;8.722;2024-01-07T20:46:44;100243.22;;;4.87;54.56
46366;BME280;72328;49.570;8.722;2024-01-07T20:50:45;100244.91;;;4.88;54.15
46366;BME280;72328;49.570;8.722;2024-01-07T20:54:45;100251.78;;;4.86;54.74
46366;BME280;72328;49.570;8.722;2024-01-07T20:58:48;100252.88;;;4.79;54.46
46366;BME280;72328;49.570;8.722;2024-01-07T21:02:49;100257.28;;;4.76;54.56
46366;BME280;72328;49.570;8.722;2024-01-07T21:06:49;100248.91;;;4.72;54.40
46366;BME280;72328;49.570;8.722;2024-01-07T21:10:51;100264.13;;;4.74;54.93
46366;BME280;72328;49.570;8.722;2024-01-07T21:14:52;100260.84;;;4.70;54.18
46366;BME280;72328;49.570;8.722;2024-01-07T21:18:53;100263.22;;;4.75;54.62
46366;BME280;72328;49.570;8.722;2024-01-07T21:22:54;100267.53;;;4.74;54.73